sensor_id;sensor_type;location;lat;lon;timestamp;pressure;altitude;pressure_sealevel;temperature;humidity
62510;BME280;48558;48.242;11.654;2022-12-11T00:03:52;95385.22;;;-0.99;100.00
62510;BME280;48558;48.242;11.654;2022-12-11T00:08:05;95395.72;;;-1.01;100.00
62510;BME280;48558;48.242;11.654;2022-12-11T00:12:17;95385.31;;;-1.06;100.00
62510;BME280;48558;48.242;11.654;2022-12-11T00:16:30;95394.06;;;-0.95;100.00
62510;BME280;48558;48.242;11.654;2022-12-11T00:20:42;95383.56;;;-1.16;100.00
62510;BME280;48558;48.242;11.654;2022-12-11T00:24:54;95380.88;;;-1.19;100.00
62510;BME280;48558;48.242;11.654;2022-12-11T00:29:09;95389.53;;;-1.01;100.00
62510;BME280;48558;48.242;11.654;2022-12-11T00:33:25;95390.44;;;-1.38;100.00
62510;BME280;48558;48.242;11.654;2022-12-11T00:37:38;95373.72;;;-1.33;100.00
62510;BME280;48558;48.242;11.654;2022-12-11T00:41:50;95381.03;;;-1.30;100.00
62510;BME280;48558;48.242;11.654;2022-12-11T00:46:03;95389.53;;;-1.28;100.00
62510;BME280;48558;48.242;11.654;2022-12-11T00:50:15;95392.31;;;-1.35;100.00
62510;BME280;48558;48.242;11.654;2022-12-11T00:54:28;95398.50;;;-1.34;100.00
62510;BME280;48558;48.242;11.654;2022-12-11T00:58:40;95394.31;;;-1.39;100.00
62510;BME280;48558;48.242;11.654;2022-12-11T01:02:52;95400.19;;;-1.44;100.00
62510;BME280;48558;48.242;11.654;2022-12-11T01:07:05;95390.22;;;-1.51;100.00
62510;BME280;48558;48.242;11.654;2022-12-11T01:11:17;95391.16;;;-1.34;100.00
62510;BME280;48558;48.242;11.654;2022-12-11T01:15:38;95391.34;;;-1.21;100.00
62510;BME280;48558;48.242;11.654;2022-12-11T01:19:53;95405.59;;;-1.14;100.00
62510;BME280;48558;48.242;11.654;2022-12-11T01:24:05;95388.75;;;-1.28;100.00
62510;BME280;48558;48.242;11.654;2022-12-11T01:28:18;95392.28;;;-1.31;100.00
62510;BME280;48558;48.242;11.654;2022-12-11T01:32:31;95421.13;;;-1.18;100.00
62510;BME280;48558;48.242;11.654;2022-12-11T01:36:43;95410.13;;;-1.07;100.00
62510;BME280;48558;48.242;11.654;2022-12-11T01:40:56;95425.53;;;-1.27;100.00
62510;BME280;48558;48.242;11.654;2022-12-11T01:49:38;95431.84;;;-1.11;100.00
62510;BME280;48558;48.242;11.654;2022-12-11T01:53:58;95432.19;;;-1.05;100.00
62510;BME280;48558;48.242;11.654;2022-12-11T01:58:12;95433.66;;;-1.01;100.00
62510;BME280;48558;48.242;11.654;2022-12-11T02:02:29;95437.09;;;-0.97;100.00
62510;BME280;48558;48.242;11.654;2022-12-11T02:06:50;95416.63;;;-1.01;100.00
62510;BME280;48558;48.242;11.654;2022-12-11T02:11:09;95428.34;;;-1.08;100.00
62510;BME280;48558;48.242;11.654;2022-12-11T02:15:35;95423.19;;;-0.99;100.00
62510;BME280;48558;48.242;11.654;2022-12-11T02:20:17;95415.72;;;-0.91;100.00
62510;BME280;48558;48.242;11.654;2022-12-11T02:25:00;95411.31;;;-1.08;100.00
62510;BME280;48558;48.242;11.654;2022-12-11T02:29:38;95409.06;;;-1.13;100.00
62510;BME280;48558;48.242;11.654;2022-12-11T02:34:11;95416.38;;;-1.10;100.00
62510;BME280;48558;48.242;11.654;2022-12-11T02:38:33;95400.47;;;-1.08;100.00
62510;BME280;48558;48.242;11.654;2022-12-11T02:42:47;95404.38;;;-1.09;100.00
62510;BME280;48558;48.242;11.654;2022-12-11T02:47:03;95412.78;;;-1.04;100.00
62510;BME280;48558;48.242;11.654;2022-12-11T02:51:22;95415.81;;;-0.98;100.00
62510;BME280;48558;48.242;11.654;2022-12-11T02:55:36;95411.00;;;-1.14;100.00
62510;BME280;48558;48.242;11.654;2022-12-11T02:59:50;95416.59;;;-0.98;100.00
62510;BME280;48558;48.242;11.654;2022-12-11T03:04:02;95418.44;;;-1.18;100.00
62510;BME280;48558;48.242;11.654;2022-12-11T03:08:15;95422.25;;;-1.15;100.00
62510;BME280;48558;48.242;11.654;2022-12-11T03:12:30;95433.19;;;-1.22;100.00
62510;BME280;48558;48.242;11.654;2022-12-11T03:16:58;95424.69;;;-1.24;100.00
62510;BME280;48558;48.242;11.654;2022-12-11T03:21:18;95431.84;;;-1.11;100.00
62510;BME280;48558;48.242;11.654;2022-12-11T03:25:56;95420.53;;;-1.02;100.00
62510;BME280;48558;48.242;11.654;2022-12-11T03:30:13;95429.31;;;-1.21;100.00
62510;BME280;48558;48.242;11.654;2022-12-11T03:34:37;95436.22;;;-1.17;100.00
62510;BME280;48558;48.242;11.654;2022-12-11T03:39:20;95432.78;;;-1.21;100.00
62510;BME280;48558;48.242;11.654;2022-12-11T03:43:36;95442.41;;;-1.16;100.00
62510;BME280;48558;48.242;11.654;2022-12-11T03:47:51;95444.50;;;-1.27;100.00
62510;BME280;48558;48.242;11.654;2022-12-11T03:52:06;95437.16;;;-1.30;100.00
62510;BME280;48558;48.242;11.654;2022-12-11T03:56:20;95432.75;;;-1.48;100.00
62510;BME280;48558;48.242;11.654;2022-12-11T04:00:33;95432.19;;;-1.35;100.00
62510;BME280;48558;48.242;11.654;2022-12-11T04:04:45;95433.22;;;-1.26;100.00
62510;BME280;48558;48.242;11.654;2022-12-11T04:09:02;95442.03;;;-1.49;100.00
62510;BME280;48558;48.242;11.654;2022-12-11T04:13:14;95438.94;;;-1.47;100.00
62510;BME280;48558;48.242;11.654;2022-12-11T04:17:35;95445.06;;;-1.43;100.00
62510;BME280;48558;48.242;11.654;2022-12-11T04:22:06;95438.16;;;-1.48;100.00
62510;BME280;48558;48.242;11.654;2022-12-11T04:26:37;95429.38;;;-1.25;100.00
62510;BME280;48558;48.242;11.654;2022-12-11T04:30:50;95435.97;;;-1.60;100.00
62510;BME280;48558;48.242;11.654;2022-12-11T04:35:03;95437.38;;;-1.48;100.00
62510;BME280;48558;48.242;11.654;2022-12-11T04:39:16;95437.88;;;-1.57;100.00
62510;BME280;48558;48.242;11.654;2022-12-11T04:43:28;95426.63;;;-1.52;100.00
62510;BME280;48558;48.242;11.654;2022-12-11T04:47:41;95440.44;;;-1.42;100.00
62510;BME280;48558;48.242;11.654;2022-12-11T04:51:53;95421.78;;;-1.37;100.00
62510;BME280;48558;48.242;11.654;2022-12-11T04:56:09;95428.00;;;-1.40;100.00
62510;BME280;48558;48.242;11.654;2022-12-11T05:00:32;95430.69;;;-1.40;100.00
62510;BME280;48558;48.242;11.654;2022-12-11T05:04:44;95424.06;;;-1.66;100.00
62510;BME280;48558;48.242;11.654;2022-12-11T05:08:56;95416.16;;;-1.83;100.00
62510;BME280;48558;48.242;11.654;2022-12-11T05:13:08;95427.66;;;-1.76;100.00
62510;BME280;48558;48.242;11.654;2022-12-11T05:17:21;95419.25;;;-1.85;100.00
62510;BME280;48558;48.242;11.654;2022-12-11T05:21:34;95420.38;;;-1.82;100.00
62510;BME280;48558;48.242;11.654;2022-12-11T05:25:56;95402.34;;;-1.92;100.00
62510;BME280;48558;48.242;11.654;2022-12-11T05:30:09;95420.75;;;-1.80;100.00
62510;BME280;48558;48.242;11.654;2022-12-11T05:34:21;95405.88;;;-1.65;100.00
62510;BME280;48558;48.242;11.654;2022-12-11T05:38:34;95394.56;;;-1.90;100.00
62510;BME280;48558;48.242;11.654;2022-12-11T05:42:46;95403.66;;;-1.74;100.00
62510;BME280;48558;48.242;11.654;2022-12-11T05:46:58;95406.41;;;-1.77;100.00
62510;BME280;48558;48.242;11.654;2022-12-11T05:51:12;95423.94;;;-1.89;100.00
62510;BME280;48558;48.242;11.654;2022-12-11T05:55:24;95414.81;;;-2.02;100.00
62510;BME280;48558;48.242;11.654;2022-12-11T05:59:37;95404.66;;;-1.94;100.00
62510;BME280;48558;48.242;11.654;2022-12-11T06:03:49;95421.00;;;-2.01;100.00
62510;BME280;48558;48.242;11.654;2022-12-11T06:08:02;95417.88;;;-2.00;100.00
62510;BME280;48558;48.242;11.654;2022-12-11T06:12:14;95403.97;;;-2.02;100.00
62510;BME280;48558;48.242;11.654;2022-12-11T06:16:26;95409.91;;;-2.14;100.00
62510;BME280;48558;48.242;11.654;2022-12-11T06:20:39;95399.22;;;-1.91;100.00
62510;BME280;48558;48.242;11.654;2022-12-11T06:24:51;95404.34;;;-2.00;100.00
62510;BME280;48558;48.242;11.654;2022-12-11T06:29:03;95413.03;;;-1.82;100.00
62510;BME280;48558;48.242;11.654;2022-12-11T06:33:23;95414.81;;;-2.02;100.00
62510;BME280;48558;48.242;11.654;2022-12-11T06:37:37;95417.88;;;-2.00;100.00
62510;BME280;48558;48.242;11.654;2022-12-11T06:41:50;95410.56;;;-2.03;100.00
62510;BME280;48558;48.242;11.654;2022-12-11T06:46:04;95420.22;;;-2.02;100.00
62510;BME280;48558;48.242;11.654;2022-12-11T06:50:18;95413.53;;;-1.94;100.00
62510;BME280;48558;48.242;11.654;2022-12-11T06:54:36;95402.28;;;-1.89;100.00
62510;BME280;48558;48.242;11.654;2022-12-11T06:58:48;95406.63;;;-1.65;100.00
62510;BME280;48558;48.242;11.654;2022-12-11T07:03:01;95409.59;;;-1.86;100.00
62510;BME280;48558;48.242;11.654;2022-12-11T07:07:13;95403.91;;;-1.95;100.00
62510;BME280;48558;48.242;11.654;2022-12-11T07:11:25;95398.31;;;-1.81;100.00
62510;BME280;48558;48.242;11.654;2022-12-11T07:15:38;95411.97;;;-1.58;100.00
62510;BME280;48558;48.242;11.654;2022-12-11T07:19:50;95405.19;;;-1.73;100.00
62510;BME280;48558;48.242;11.654;2022-12-11T07:24:03;95417.94;;;-1.70;100.00
62510;BME280;48558;48.242;11.654;2022-12-11T07:28:16;95423.81;;;-1.78;100.00
62510;BME280;48558;48.242;11.654;2022-12-11T07:32:28;95424.78;;;-1.62;100.00
62510;BME280;48558;48.242;11.654;2022-12-11T07:36:41;95429.97;;;-1.40;100.00
62510;BME280;48558;48.242;11.654;2022-12-11T07:40:54;95430.59;;;-1.29;100.00
62510;BME280;48558;48.242;11.654;2022-12-11T07:45:07;95443.03;;;-1.35;100.00
62510;BME280;48558;48.242;11.654;2022-12-11T07:49:20;95435.16;;;-1.26;100.00
62510;BME280;48558;48.242;11.654;2022-12-11T07:53:32;95430.00;;;-1.17;100.00
62510;BME280;48558;48.242;11.654;2022-12-11T07:57:44;95435.34;;;-1.10;100.00
62510;BME280;48558;48.242;11.654;2022-12-11T08:01:57;95438.72;;;-0.76;100.00
62510;BME280;48558;48.242;11.654;2022-12-11T08:06:10;95437.81;;;-0.66;100.00
62510;BME280;48558;48.242;11.654;2022-12-11T08:10:23;95429.91;;;-0.57;100.00
62510;BME280;48558;48.242;11.654;2022-12-11T08:14:35;95443.25;;;-0.43;100.00
62510;BME280;48558;48.242;11.654;2022-12-11T08:18:49;95446.44;;;-0.48;100.00
62510;BME280;48558;48.242;11.654;2022-12-11T08:23:01;95443.94;;;-0.62;100.00
62510;BME280;48558;48.242;11.654;2022-12-11T08:27:23;95451.13;;;-0.52;100.00
62510;BME280;48558;48.242;11.654;2022-12-11T08:31:39;95443.63;;;-0.94;100.00
62510;BME280;48558;48.242;11.654;2022-12-11T08:35:53;95456.16;;;-0.50;100.00
62510;BME280;48558;48.242;11.654;2022-12-11T08:40:06;95451.38;;;-0.43;100.00
62510;BME280;48558;48.242;11.654;2022-12-11T08:44:18;95456.31;;;-0.34;100.00
62510;BME280;48558;48.242;11.654;2022-12-11T08:48:31;95464.34;;;-0.54;100.00
62510;BME280;48558;48.242;11.654;2022-12-11T08:52:44;95450.25;;;-0.68;100.00
62510;BME280;48558;48.242;11.654;2022-12-11T08:56:57;95467.16;;;-0.88;100.00
62510;BME280;48558;48.242;11.654;2022-12-11T09:01:14;95461.75;;;-0.88;100.00
62510;BME280;48558;48.242;11.654;2022-12-11T09:05:33;95460.63;;;-0.63;100.00
62510;BME280;48558;48.242;11.654;2022-12-11T09:09:46;95457.03;;;-0.34;100.00
62510;BME280;48558;48.242;11.654;2022-12-11T09:13:59;95450.06;;;0.12;100.00
62510;BME280;48558;48.242;11.654;2022-12-11T09:18:18;95451.00;;;-0.41;100.00
62510;BME280;48558;48.242;11.654;2022-12-11T09:22:40;95461.06;;;-0.42;100.00
62510;BME280;48558;48.242;11.654;2022-12-11T09:26:53;95451.75;;;-0.67;100.00
62510;BME280;48558;48.242;11.654;2022-12-11T09:31:10;95460.25;;;-0.39;100.00
62510;BME280;48558;48.242;11.654;2022-12-11T09:35:23;95445.84;;;0.11;100.00
62510;BME280;48558;48.242;11.654;2022-12-11T09:39:35;95447.97;;;-0.24;100.00
62510;BME280;48558;48.242;11.654;2022-12-11T09:48:23;95446.72;;;-0.42;100.00
62510;BME280;48558;48.242;11.654;2022-12-11T09:52:54;95446.31;;;-0.18;100.00
62510;BME280;48558;48.242;11.654;2022-12-11T09:57:17;95440.66;;;-0.50;100.00
62510;BME280;48558;48.242;11.654;2022-12-11T10:01:38;95427.97;;;-0.33;100.00
62510;BME280;48558;48.242;11.654;2022-12-11T10:06:11;95438.19;;;-0.41;100.00
62510;BME280;48558;48.242;11.654;2022-12-11T10:15:11;95434.84;;;0.18;100.00
62510;BME280;48558;48.242;11.654;2022-12-11T10:19:29;95430.75;;;-0.14;100.00
62510;BME280;48558;48.242;11.654;2022-12-11T10:23:45;95422.44;;;-0.26;100.00
62510;BME280;48558;48.242;11.654;2022-12-11T10:28:10;95412.38;;;0.14;100.00
62510;BME280;48558;48.242;11.654;2022-12-11T10:32:30;95413.81;;;0.22;100.00
62510;BME280;48558;48.242;11.654;2022-12-11T10:36:47;95395.84;;;0.47;100.00
62510;BME280;48558;48.242;11.654;2022-12-11T10:41:11;95398.84;;;0.33;100.00
62510;BME280;48558;48.242;11.654;2022-12-11T10:45:25;95387.72;;;0.05;100.00
62510;BME280;48558;48.242;11.654;2022-12-11T10:49:41;95407.03;;;-0.33;100.00
62510;BME280;48558;48.242;11.654;2022-12-11T10:53:56;95394.06;;;-0.68;100.00
62510;BME280;48558;48.242;11.654;2022-12-11T10:58:28;95390.75;;;-0.56;100.00
62510;BME280;48558;48.242;11.654;2022-12-11T11:02:44;95384.50;;;-0.30;100.00
62510;BME280;48558;48.242;11.654;2022-12-11T11:07:30;95380.69;;;-0.13;100.00
62510;BME280;48558;48.242;11.654;2022-12-11T11:11:54;95371.41;;;-0.58;100.00
62510;BME280;48558;48.242;11.654;2022-12-11T11:16:14;95370.16;;;-0.30;100.00
62510;BME280;48558;48.242;11.654;2022-12-11T11:20:29;95360.78;;;-0.26;100.00
62510;BME280;48558;48.242;11.654;2022-12-11T11:24:52;95364.88;;;-0.18;100.00
62510;BME280;48558;48.242;11.654;2022-12-11T11:29:05;95349.31;;;-0.14;100.00
62510;BME280;48558;48.242;11.654;2022-12-11T11:33:20;95340.31;;;-0.30;100.00
62510;BME280;48558;48.242;11.654;2022-12-11T11:37:34;95336.38;;;-0.95;100.00
62510;BME280;48558;48.242;11.654;2022-12-11T11:41:57;95342.63;;;-0.52;100.00
62510;BME280;48558;48.242;11.654;2022-12-11T11:50:48;95322.94;;;0.78;100.00
62510;BME280;48558;48.242;11.654;2022-12-11T11:55:14;95323.97;;;0.13;100.00
62510;BME280;48558;48.242;11.654;2022-12-11T11:59:38;95330.78;;;0.21;100.00
62510;BME280;48558;48.242;11.654;2022-12-11T12:03:52;95321.66;;;0.66;100.00
62510;BME280;48558;48.242;11.654;2022-12-11T12:12:46;95323.47;;;-0.02;100.00
62510;BME280;48558;48.242;11.654;2022-12-11T12:21:33;95318.88;;;0.70;100.00
62510;BME280;48558;48.242;11.654;2022-12-11T12:30:21;95311.59;;;0.63;100.00
62510;BME280;48558;48.242;11.654;2022-12-11T12:34:50;95315.88;;;-0.11;100.00
62510;BME280;48558;48.242;11.654;2022-12-11T12:43:46;95324.22;;;-0.41;100.00
62510;BME280;48558;48.242;11.654;2022-12-11T12:48:03;95313.50;;;-0.48;100.00
62510;BME280;48558;48.242;11.654;2022-12-11T12:52:30;95300.34;;;0.10;100.00
62510;BME280;48558;48.242;11.654;2022-12-11T12:56:43;95309.41;;;0.03;100.00
62510;BME280;48558;48.242;11.654;2022-12-11T13:01:09;95304.94;;;-0.27;100.00
62510;BME280;48558;48.242;11.654;2022-12-11T13:05:27;95302.19;;;0.32;100.00
62510;BME280;48558;48.242;11.654;2022-12-11T13:09:40;95291.47;;;0.45;100.00
62510;BME280;48558;48.242;11.654;2022-12-11T13:14:04;95294.53;;;0.47;100.00
62510;BME280;48558;48.242;11.654;2022-12-11T13:18:37;95298.50;;;0.07;100.00
62510;BME280;48558;48.242;11.654;2022-12-11T13:22:55;95313.84;;;-0.69;100.00
62510;BME280;48558;48.242;11.654;2022-12-11T13:31:43;95320.81;;;-0.68;100.00
62510;BME280;48558;48.242;11.654;2022-12-11T13:36:26;95318.34;;;-0.82;100.00
62510;BME280;48558;48.242;11.654;2022-12-11T13:40:41;95326.03;;;-0.77;100.00
62510;BME280;48558;48.242;11.654;2022-12-11T13:44:55;95319.00;;;-0.98;100.00
62510;BME280;48558;48.242;11.654;2022-12-11T13:49:19;95323.75;;;-1.05;100.00
62510;BME280;48558;48.242;11.654;2022-12-11T13:53:32;95308.59;;;-1.26;100.00
62510;BME280;48558;48.242;11.654;2022-12-11T13:57:45;95316.97;;;-1.17;100.00
62510;BME280;48558;48.242;11.654;2022-12-11T14:02:02;95312.03;;;-0.52;100.00
62510;BME280;48558;48.242;11.654;2022-12-11T14:06:17;95319.50;;;-0.17;100.00
62510;BME280;48558;48.242;11.654;2022-12-11T14:10:30;95314.19;;;-0.44;100.00
62510;BME280;48558;48.242;11.654;2022-12-11T14:14:54;95314.88;;;-0.40;100.00
62510;BME280;48558;48.242;11.654;2022-12-11T14:19:08;95312.91;;;-0.59;100.00
62510;BME280;48558;48.242;11.654;2022-12-11T14:23:27;95316.56;;;-0.69;100.00
62510;BME280;48558;48.242;11.654;2022-12-11T14:27:50;95323.22;;;-0.74;100.00
62510;BME280;48558;48.242;11.654;2022-12-11T14:32:04;95316.44;;;-0.62;100.00
62510;BME280;48558;48.242;11.654;2022-12-11T14:36:17;95321.06;;;-0.82;100.00
62510;BME280;48558;48.242;11.654;2022-12-11T14:40:36;95322.56;;;-0.81;100.00
62510;BME280;48558;48.242;11.654;2022-12-11T14:44:51;95318.25;;;-1.02;100.00
62510;BME280;48558;48.242;11.654;2022-12-11T14:49:36;95327.66;;;-1.33;100.00
62510;BME280;48558;48.242;11.654;2022-12-11T14:53:46;95321.63;;;-1.44;100.00
62510;BME280;48558;48.242;11.654;2022-12-11T14:58:05;95327.47;;;-1.46;100.00
62510;BME280;48558;48.242;11.654;2022-12-11T15:02:35;95330.19;;;-1.49;100.00
62510;BME280;48558;48.242;11.654;2022-12-11T15:06:49;95336.28;;;-1.41;100.00
62510;BME280;48558;48.242;11.654;2022-12-11T15:11:22;95325.44;;;-1.68;100.00
62510;BME280;48558;48.242;11.654;2022-12-11T15:15:45;95332.78;;;-1.65;100.00
62510;BME280;48558;48.242;11.654;2022-12-11T15:20:09;95328.34;;;-1.56;100.00
62510;BME280;48558;48.242;11.654;2022-12-11T15:24:42;95334.16;;;-1.84;100.00
62510;BME280;48558;48.242;11.654;2022-12-11T15:28:59;95334.97;;;-1.87;100.00
62510;BME280;48558;48.242;11.654;2022-12-11T15:37:30;95329.78;;;-1.74;100.00
62510;BME280;48558;48.242;11.654;2022-12-11T15:41:42;95334.66;;;-1.92;100.00
62510;BME280;48558;48.242;11.654;2022-12-11T15:46:02;95334.78;;;-2.03;100.00
62510;BME280;48558;48.242;11.654;2022-12-11T15:50:16;95330.78;;;-2.25;100.00
62510;BME280;48558;48.242;11.654;2022-12-11T15:54:38;95331.34;;;-2.41;100.00
62510;BME280;48558;48.242;11.654;2022-12-11T15:58:51;95337.22;;;-2.49;100.00
62510;BME280;48558;48.242;11.654;2022-12-11T16:03:03;95344.13;;;-2.45;100.00
62510;BME280;48558;48.242;11.654;2022-12-11T16:07:18;95348.13;;;-2.60;100.00
62510;BME280;48558;48.242;11.654;2022-12-11T16:11:31;95346.31;;;-2.70;100.00
62510;BME280;48558;48.242;11.654;2022-12-11T16:15:46;95358.69;;;-2.72;100.00
62510;BME280;48558;48.242;11.654;2022-12-11T16:19:58;95361.03;;;-2.74;100.00
62510;BME280;48558;48.242;11.654;2022-12-11T16:24:11;95350.09;;;-2.64;100.00
62510;BME280;48558;48.242;11.654;2022-12-11T16:28:23;95366.31;;;-2.64;100.00
62510;BME280;48558;48.242;11.654;2022-12-11T16:32:35;95366.59;;;-2.51;100.00
62510;BME280;48558;48.242;11.654;2022-12-11T16:36:56;95355.91;;;-2.28;100.00
62510;BME280;48558;48.242;11.654;2022-12-11T16:41:09;95362.38;;;-2.15;100.00
62510;BME280;48558;48.242;11.654;2022-12-11T16:45:23;95360.91;;;-2.23;100.00
62510;BME280;48558;48.242;11.654;2022-12-11T16:49:36;95351.22;;;-2.21;100.00
62510;BME280;48558;48.242;11.654;2022-12-11T16:53:49;95350.84;;;-2.23;100.00
62510;BME280;48558;48.242;11.654;2022-12-11T16:58:01;95359.03;;;-2.30;100.00
62510;BME280;48558;48.242;11.654;2022-12-11T17:02:14;95365.59;;;-2.27;100.00
62510;BME280;48558;48.242;11.654;2022-12-11T17:06:28;95355.25;;;-2.02;100.00
62510;BME280;48558;48.242;11.654;2022-12-11T17:10:41;95357.88;;;-1.95;100.00
62510;BME280;48558;48.242;11.654;2022-12-11T17:14:55;95367.88;;;-1.88;100.00
62510;BME280;48558;48.242;11.654;2022-12-11T17:19:07;95362.84;;;-1.90;100.00
62510;BME280;48558;48.242;11.654;2022-12-11T17:23:30;95362.81;;;-1.86;100.00
62510;BME280;48558;48.242;11.654;2022-12-11T17:27:43;95365.53;;;-1.90;100.00
62510;BME280;48558;48.242;11.654;2022-12-11T17:32:05;95364.31;;;-1.82;100.00
62510;BME280;48558;48.242;11.654;2022-12-11T17:36:20;95363.31;;;-1.98;100.00
62510;BME280;48558;48.242;11.654;2022-12-11T17:40:33;95372.00;;;-1.80;100.00
62510;BME280;48558;48.242;11.654;2022-12-11T17:44:45;95362.97;;;-2.00;100.00
62510;BME280;48558;48.242;11.654;2022-12-11T17:48:58;95372.16;;;-1.91;100.00
62510;BME280;48558;48.242;11.654;2022-12-11T17:53:13;95368.63;;;-1.88;100.00
62510;BME280;48558;48.242;11.654;2022-12-11T17:57:25;95367.50;;;-1.90;100.00
62510;BME280;48558;48.242;11.654;2022-12-11T18:01:37;95370.69;;;-1.99;100.00
62510;BME280;48558;48.242;11.654;2022-12-11T18:05:52;95381.41;;;-1.88;100.00
62510;BME280;48558;48.242;11.654;2022-12-11T18:10:05;95379.91;;;-1.93;100.00
62510;BME280;48558;48.242;11.654;2022-12-11T18:14:27;95395.53;;;-2.07;100.00
62510;BME280;48558;48.242;11.654;2022-12-11T18:18:39;95379.63;;;-2.02;100.00
62510;BME280;48558;48.242;11.654;2022-12-11T18:23:00;95385.41;;;-2.00;100.00
62510;BME280;48558;48.242;11.654;2022-12-11T18:27:12;95378.97;;;-2.13;100.00
62510;BME280;48558;48.242;11.654;2022-12-11T18:31:26;95391.25;;;-2.05;100.00
62510;BME280;48558;48.242;11.654;2022-12-11T18:35:39;95413.84;;;-2.22;100.00
62510;BME280;48558;48.242;11.654;2022-12-11T18:39:52;95393.47;;;-2.34;100.00
62510;BME280;48558;48.242;11.654;2022-12-11T18:44:04;95394.78;;;-2.11;100.00
62510;BME280;48558;48.242;11.654;2022-12-11T18:48:20;95388.75;;;-2.26;100.00
62510;BME280;48558;48.242;11.654;2022-12-11T18:52:33;95403.41;;;-2.20;100.00
62510;BME280;48558;48.242;11.654;2022-12-11T18:56:45;95393.53;;;-2.41;100.00
62510;BME280;48558;48.242;11.654;2022-12-11T19:00:58;95401.47;;;-2.23;100.00
62510;BME280;48558;48.242;11.654;2022-12-11T19:05:11;95407.19;;;-2.14;100.00
62510;BME280;48558;48.242;11.654;2022-12-11T19:09:24;95398.81;;;-2.27;100.00
62510;BME280;48558;48.242;11.654;2022-12-11T19:13:37;95407.78;;;-2.33;100.00
62510;BME280;48558;48.242;11.654;2022-12-11T19:17:50;95403.41;;;-2.24;100.00
62510;BME280;48558;48.242;11.654;2022-12-11T19:22:02;95398.31;;;-2.55;100.00
62510;BME280;48558;48.242;11.654;2022-12-11T19:26:17;95404.31;;;-2.34;100.00
62510;BME280;48558;48.242;11.654;2022-12-11T19:30:47;95399.84;;;-2.54;100.00
62510;BME280;48558;48.242;11.654;2022-12-11T19:35:00;95396.72;;;-2.49;100.00
62510;BME280;48558;48.242;11.654;2022-12-11T19:39:12;95399.75;;;-2.44;100.00
62510;BME280;48558;48.242;11.654;2022-12-11T19:43:37;95400.56;;;-2.47;100.00
62510;BME280;48558;48.242;11.654;2022-12-11T19:47:50;95401.06;;;-2.22;100.00
62510;BME280;48558;48.242;11.654;2022-12-11T19:52:02;95399.50;;;-2.19;100.00
62510;BME280;48558;48.242;11.654;2022-12-11T19:56:16;95404.25;;;-2.30;100.00
62510;BME280;48558;48.242;11.654;2022-12-11T20:00:29;95408.94;;;-2.34;100.00
62510;BME280;48558;48.242;11.654;2022-12-11T20:04:41;95405.22;;;-2.51;100.00
62510;BME280;48558;48.242;11.654;2022-12-11T20:08:54;95405.25;;;-2.54;100.00
62510;BME280;48558;48.242;11.654;2022-12-11T20:13:06;95406.47;;;-2.59;100.00
62510;BME280;48558;48.242;11.654;2022-12-11T20:17:19;95395.22;;;-2.54;100.00
62510;BME280;48558;48.242;11.654;2022-12-11T20:21:31;95403.75;;;-2.59;100.00
62510;BME280;48558;48.242;11.654;2022-12-11T20:25:43;95403.84;;;-2.69;100.00
62510;BME280;48558;48.242;11.654;2022-12-11T20:29:56;95409.25;;;-2.69;100.00
62510;BME280;48558;48.242;11.654;2022-12-11T20:34:08;95413.84;;;-2.63;100.00
62510;BME280;48558;48.242;11.654;2022-12-11T20:38:21;95400.44;;;-2.77;100.00
62510;BME280;48558;48.242;11.654;2022-12-11T20:42:34;95407.38;;;-2.76;100.00
62510;BME280;48558;48.242;11.654;2022-12-11T20:46:54;95395.81;;;-2.76;100.00
62510;BME280;48558;48.242;11.654;2022-12-11T20:51:08;95418.06;;;-2.62;100.00
62510;BME280;48558;48.242;11.654;2022-12-11T20:55:28;95409.88;;;-2.51;100.00
62510;BME280;48558;48.242;11.654;2022-12-11T20:59:41;95405.38;;;-2.68;100.00
62510;BME280;48558;48.242;11.654;2022-12-11T21:03:59;95406.09;;;-2.64;100.00
62510;BME280;48558;48.242;11.654;2022-12-11T21:08:21;95401.47;;;-2.60;100.00
62510;BME280;48558;48.242;11.654;2022-12-11T21:12:34;95401.50;;;-2.67;100.00
62510;BME280;48558;48.242;11.654;2022-12-11T21:16:47;95405.56;;;-2.45;100.00
62510;BME280;48558;48.242;11.654;2022-12-11T21:21:00;95399.53;;;-2.63;100.00
62510;BME280;48558;48.242;11.654;2022-12-11T21:25:12;95386.09;;;-2.70;100.00
62510;BME280;48558;48.242;11.654;2022-12-11T21:29:26;95394.50;;;-2.58;100.00
62510;BME280;48558;48.242;11.654;2022-12-11T21:33:41;95397.63;;;-2.66;100.00
62510;BME280;48558;48.242;11.654;2022-12-11T21:37:53;95389.75;;;-2.50;100.00
62510;BME280;48558;48.242;11.654;2022-12-11T21:42:16;95387.84;;;-2.53;100.00
62510;BME280;48558;48.242;11.654;2022-12-11T21:46:28;95390.66;;;-2.64;100.00
62510;BME280;48558;48.242;11.654;2022-12-11T21:50:41;95401.75;;;-2.51;100.00
62510;BME280;48558;48.242;11.654;2022-12-11T21:54:54;95386.81;;;-2.63;100.00
62510;BME280;48558;48.242;11.654;2022-12-11T21:59:08;95406.09;;;-2.61;100.00
62510;BME280;48558;48.242;11.654;2022-12-11T22:03:22;95383.78;;;-2.72;100.00
62510;BME280;48558;48.242;11.654;2022-12-11T22:07:34;95388.47;;;-2.79;100.00
62510;BME280;48558;48.242;11.654;2022-12-11T22:11:46;95396.19;;;-2.78;100.00
62510;BME280;48558;48.242;11.654;2022-12-11T22:16:04;95393.47;;;-2.74;100.00
62510;BME280;48558;48.242;11.654;2022-12-11T22:20:17;95394.28;;;-2.81;100.00
62510;BME280;48558;48.242;11.654;2022-12-11T22:24:29;95405.56;;;-2.89;100.00
62510;BME280;48558;48.242;11.654;2022-12-11T22:28:42;95399.72;;;-2.84;100.00
62510;BME280;48558;48.242;11.654;2022-12-11T22:32:54;95400.69;;;-2.61;100.00
62510;BME280;48558;48.242;11.654;2022-12-11T22:37:07;95403.09;;;-2.73;100.00
62510;BME280;48558;48.242;11.654;2022-12-11T22:41:28;95402.31;;;-2.70;100.00
62510;BME280;48558;48.242;11.654;2022-12-11T22:45:40;95405.38;;;-2.65;100.00
62510;BME280;48558;48.242;11.654;2022-12-11T22:49:53;95398.00;;;-2.64;100.00